createdAt,value
2023-05-12T00:00:12.573Z,54.67
2023-05-12T00:01:12.591Z,54.57
2023-05-12T00:02:12.599Z,54.57
2023-05-12T00:03:12.811Z,54.67
2023-05-12T00:04:12.766Z,54.67
2023-05-12T00:05:12.680Z,54.57
2023-05-12T00:06:12.693Z,54.57
2023-05-12T00:07:12.720Z,54.57
2023-05-12T00:08:12.737Z,54.57
2023-05-12T00:09:12.773Z,54.57
2023-05-12T00:10:12.755Z,54.57
2023-05-12T00:11:12.772Z,54.57
2023-05-12T00:12:12.753Z,54.57
2023-05-12T00:13:12.809Z,54.57
2023-05-12T00:14:12.786Z,54.57
2023-05-12T00:15:12.818Z,54.57
2023-05-12T00:16:12.852Z,54.57
2023-05-12T00:17:12.847Z,54.57
2023-05-12T00:18:12.870Z,54.57
2023-05-12T00:19:12.907Z,54.57
2023-05-12T00:20:12.916Z,54.57
2023-05-12T00:21:12.943Z,54.57
2023-05-12T00:22:12.964Z,54.57
2023-05-12T00:23:12.988Z,54.57
2023-05-12T00:24:12.990Z,54.57
2023-05-12T00:25:12.950Z,54.57
2023-05-12T00:26:12.967Z,54.57
2023-05-12T00:27:12.993Z,54.57
2023-05-12T00:28:13.016Z,54.67
2023-05-12T00:29:12.992Z,54.57
2023-05-12T00:30:13.033Z,54.57
2023-05-12T00:31:13.102Z,54.57
2023-05-12T00:32:13.040Z,54.57
2023-05-12T00:33:13.104Z,54.57
2023-05-12T00:34:13.060Z,54.57
2023-05-12T00:35:13.097Z,54.57
2023-05-12T00:36:13.101Z,54.57
2023-05-12T00:37:13.101Z,54.57
2023-05-12T00:38:13.137Z,54.57
2023-05-12T00:39:13.145Z,54.47
2023-05-12T00:40:13.162Z,54.47
2023-05-12T00:41:13.170Z,54.47
2023-05-12T00:42:13.200Z,54.57
2023-05-12T00:43:13.245Z,54.57
2023-05-12T00:44:13.221Z,54.57
2023-05-12T00:45:13.232Z,54.57
2023-05-12T00:46:13.296Z,54.47
2023-05-12T00:47:13.266Z,54.57
2023-05-12T00:48:13.301Z,54.57
2023-05-12T00:49:13.284Z,54.57
2023-05-12T00:50:13.310Z,54.57
2023-05-12T00:51:13.341Z,54.47
2023-05-12T00:52:13.333Z,54.57
2023-05-12T00:53:13.360Z,54.57
2023-05-12T00:54:13.358Z,54.57
2023-05-12T00:55:13.381Z,54.57
2023-05-12T00:56:13.408Z,54.57
2023-05-12T00:57:13.420Z,54.57
2023-05-12T00:58:13.449Z,54.57
2023-05-12T00:59:13.471Z,54.57
2023-05-12T01:00:13.504Z,54.57
2023-05-12T01:01:13.547Z,54.57
2023-05-12T01:02:13.579Z,54.47
2023-05-12T01:03:13.860Z,54.57
2023-05-12T01:04:13.537Z,54.57
2023-05-12T01:05:13.563Z,54.57
2023-05-12T01:06:13.600Z,54.57
2023-05-12T01:07:13.673Z,54.57
2023-05-12T01:08:13.653Z,54.57
2023-05-12T01:09:13.667Z,54.47
2023-05-12T01:10:13.674Z,54.57
2023-05-12T01:11:13.732Z,54.47
2023-05-12T01:12:13.699Z,54.47
2023-05-12T01:13:13.723Z,54.57
2023-05-12T01:14:13.710Z,54.57
2023-05-12T01:15:13.732Z,54.57
2023-05-12T01:16:13.746Z,54.57
2023-05-12T01:17:13.804Z,54.57
2023-05-12T01:18:13.873Z,54.57
2023-05-12T01:19:13.873Z,54.57
2023-05-12T01:20:13.791Z,54.57
2023-05-12T01:21:13.813Z,54.57
2023-05-12T01:22:13.841Z,54.57
2023-05-12T01:23:13.926Z,54.47
2023-05-12T01:24:13.892Z,54.47
2023-05-12T01:25:13.909Z,54.47
2023-05-12T01:26:13.916Z,54.57
2023-05-12T01:27:13.944Z,54.47
2023-05-12T01:28:13.946Z,54.47
2023-05-12T01:29:13.947Z,54.47
2023-05-12T01:30:13.917Z,54.47
2023-05-12T01:31:13.951Z,54.47
2023-05-12T01:32:13.946Z,54.57
2023-05-12T01:33:13.982Z,54.47
2023-05-12T01:34:13.989Z,54.47
2023-05-12T01:35:14.016Z,54.57
2023-05-12T01:36:14.026Z,54.47
2023-05-12T01:37:14.052Z,54.47
2023-05-12T01:38:14.030Z,54.57
2023-05-12T01:39:14.082Z,54.47
2023-05-12T01:40:14.084Z,54.47
2023-05-12T01:41:14.102Z,54.47
2023-05-12T01:42:14.120Z,54.57
2023-05-12T01:43:14.156Z,54.57
2023-05-12T01:44:14.173Z,54.47
2023-05-12T01:45:14.208Z,54.47
2023-05-12T01:46:14.284Z,54.47
2023-05-12T01:47:14.262Z,54.47
2023-05-12T01:48:14.287Z,54.57
2023-05-12T01:49:14.303Z,54.47
2023-05-12T01:50:14.354Z,54.47
2023-05-12T01:51:14.329Z,54.47
2023-05-12T01:52:14.347Z,54.47
2023-05-12T01:53:14.355Z,54.57
2023-05-12T01:54:14.372Z,54.47
2023-05-12T01:55:14.434Z,54.47
2023-05-12T01:56:14.393Z,54.47
2023-05-12T01:57:14.448Z,54.47
2023-05-12T01:58:14.418Z,54.47
2023-05-12T01:59:14.463Z,54.47
2023-05-12T02:00:14.450Z,54.47
2023-05-12T02:01:14.721Z,54.47
2023-05-12T02:02:14.529Z,54.57
2023-05-12T02:03:14.582Z,54.47
2023-05-12T02:04:14.563Z,54.47
2023-05-12T02:05:14.531Z,54.47
2023-05-12T02:06:14.542Z,54.47
2023-05-12T02:08:40.545Z,54.47
2023-05-12T02:09:40.524Z,54.47
2023-05-12T02:10:40.570Z,54.47
2023-05-12T02:11:40.532Z,54.47
2023-05-12T02:12:40.548Z,54.47
2023-05-12T02:13:40.583Z,54.47
2023-05-12T02:14:40.608Z,54.47
2023-05-12T02:15:40.625Z,54.47
2023-05-12T02:16:40.682Z,54.47
2023-05-12T02:17:40.758Z,54.47
2023-05-12T02:18:40.691Z,54.47
2023-05-12T02:19:40.714Z,54.47
2023-05-12T02:20:40.722Z,54.47
2023-05-12T02:21:40.745Z,54.47
2023-05-12T02:22:40.774Z,54.47
2023-05-12T02:23:40.749Z,54.47
2023-05-12T02:24:40.772Z,54.47
2023-05-12T02:25:40.800Z,54.47
2023-05-12T02:26:40.841Z,54.47
2023-05-12T02:27:40.807Z,54.47
2023-05-12T02:28:40.826Z,54.47
2023-05-12T02:29:40.855Z,54.47
2023-05-12T02:30:40.835Z,54.47
2023-05-12T02:31:40.911Z,54.47
2023-05-12T02:32:40.918Z,54.47
2023-05-12T02:33:40.891Z,54.47
2023-05-12T02:34:40.961Z,54.47
2023-05-12T02:35:40.930Z,54.47
2023-05-12T02:36:40.936Z,54.47
2023-05-12T02:37:40.967Z,54.47
2023-05-12T02:38:40.996Z,54.47
2023-05-12T02:39:41.019Z,54.47
2023-05-12T02:40:41.045Z,54.47
2023-05-12T02:41:41.069Z,54.47
2023-05-12T02:42:41.118Z,54.47
2023-05-12T02:43:41.133Z,54.47
2023-05-12T02:44:41.150Z,54.47
2023-05-12T02:45:41.234Z,54.47
2023-05-12T02:46:41.203Z,54.47
2023-05-12T02:47:41.367Z,54.47
2023-05-12T02:48:41.238Z,54.47
2023-05-12T02:49:41.214Z,54.47
2023-05-12T02:50:41.229Z,54.47
2023-05-12T02:51:41.259Z,54.47
2023-05-12T02:52:41.266Z,54.47
2023-05-12T02:53:41.323Z,54.47
2023-05-12T02:54:41.319Z,54.47
2023-05-12T02:55:41.309Z,54.47
2023-05-12T02:56:41.321Z,54.47
2023-05-12T02:57:41.302Z,54.47
2023-05-12T02:58:41.555Z,54.47
2023-05-12T02:59:41.341Z,54.47
2023-05-12T03:00:41.350Z,54.47
2023-05-12T03:01:41.400Z,54.47
2023-05-12T03:02:41.445Z,54.47
2023-05-12T03:03:41.499Z,54.47
2023-05-12T03:04:41.398Z,54.47
2023-05-12T03:05:41.429Z,54.47
2023-05-12T03:06:41.420Z,54.47
2023-05-12T03:07:41.399Z,54.47
2023-05-12T03:08:41.462Z,54.47
2023-05-12T03:09:41.440Z,54.47
2023-05-12T03:10:41.454Z,54.57
2023-05-12T03:11:41.472Z,54.47
2023-05-12T03:12:41.481Z,54.47
2023-05-12T03:13:41.496Z,54.47
2023-05-12T03:14:41.598Z,54.47
2023-05-12T03:15:41.513Z,54.47
2023-05-12T03:16:41.582Z,54.47
2023-05-12T03:17:41.642Z,54.47
2023-05-12T03:18:41.606Z,54.57
2023-05-12T03:19:41.624Z,54.57
2023-05-12T03:20:41.663Z,54.47
2023-05-12T03:21:41.687Z,54.47
2023-05-12T03:22:41.704Z,54.47
2023-05-12T03:23:41.734Z,54.57
2023-05-12T03:24:41.769Z,54.57
2023-05-12T03:25:41.785Z,54.57
2023-05-12T03:26:41.808Z,54.57
2023-05-12T03:27:41.816Z,54.57
2023-05-12T03:28:41.841Z,54.57
2023-05-12T03:29:41.849Z,54.57
2023-05-12T03:30:41.956Z,54.57
2023-05-12T03:31:41.950Z,54.57
2023-05-12T03:32:41.963Z,54.57
2023-05-12T03:33:41.911Z,54.57
2023-05-12T03:34:41.915Z,54.57
2023-05-12T03:35:41.916Z,54.57
2023-05-12T03:36:41.944Z,54.57
2023-05-12T03:37:41.946Z,54.57
2023-05-12T03:38:42.029Z,54.57
2023-05-12T03:39:41.992Z,54.57
2023-05-12T03:40:42.011Z,54.57
2023-05-12T03:41:42.044Z,54.57
2023-05-12T03:42:42.027Z,54.57
2023-05-12T03:43:42.054Z,54.57
2023-05-12T03:44:42.062Z,54.47
2023-05-12T03:45:42.090Z,54.57
2023-05-12T03:46:42.288Z,54.57
2023-05-12T03:47:42.186Z,54.57
2023-05-12T03:48:42.121Z,54.47
2023-05-12T03:49:42.124Z,54.47
2023-05-12T03:50:42.145Z,54.47
2023-05-12T03:51:42.170Z,54.47
2023-05-12T03:52:42.186Z,54.57
2023-05-12T03:53:42.205Z,54.47
2023-05-12T03:54:42.241Z,54.47
2023-05-12T03:55:42.261Z,54.47
2023-05-12T03:56:42.281Z,54.47
2023-05-12T03:57:42.294Z,54.47
2023-05-12T03:58:42.328Z,54.47
2023-05-12T04:01:08.276Z,54.57
2023-05-12T04:02:08.366Z,54.57
2023-05-12T04:03:08.412Z,54.47
2023-05-12T04:04:08.511Z,54.47
2023-05-12T04:05:08.356Z,54.47
2023-05-12T04:06:10.698Z,54.77
2023-05-12T04:07:08.405Z,54.87
2023-05-12T04:08:08.435Z,54.87
2023-05-12T04:09:08.470Z,54.67
2023-05-12T04:10:08.462Z,54.67
2023-05-12T04:11:08.476Z,54.57
2023-05-12T04:12:08.503Z,54.57
2023-05-12T04:13:08.561Z,54.57
2023-05-12T04:14:08.546Z,54.47
2023-05-12T04:15:08.511Z,54.47
2023-05-12T04:16:08.550Z,54.47
2023-05-12T04:17:08.553Z,54.57
2023-05-12T04:18:08.619Z,54.57
2023-05-12T04:19:08.607Z,54.47
2023-05-12T04:20:08.611Z,54.47
2023-05-12T04:21:08.628Z,54.47
2023-05-12T04:22:08.641Z,54.47
2023-05-12T04:23:08.629Z,54.47
2023-05-12T04:24:08.733Z,54.47
2023-05-12T04:25:08.657Z,54.47
2023-05-12T04:26:08.677Z,54.47
2023-05-12T04:27:08.724Z,54.47
2023-05-12T04:28:10.075Z,54.47
2023-05-12T04:29:08.719Z,54.47
2023-05-12T04:30:08.757Z,54.47
2023-05-12T04:31:08.742Z,54.47
2023-05-12T04:32:09.065Z,54.37
2023-05-12T04:33:08.883Z,54.37
2023-05-12T04:34:08.838Z,54.37
2023-05-12T04:35:08.797Z,54.37
2023-05-12T04:36:08.828Z,54.37
2023-05-12T04:37:08.849Z,54.37
2023-05-12T04:38:08.879Z,54.37
2023-05-12T04:39:08.857Z,54.37
2023-05-12T04:40:08.940Z,54.37
2023-05-12T04:41:08.870Z,54.37
2023-05-12T04:42:08.877Z,54.37
2023-05-12T04:43:08.906Z,54.27
2023-05-12T04:44:08.895Z,54.27
2023-05-12T04:45:08.911Z,54.27
2023-05-12T04:46:09.101Z,54.27
2023-05-12T04:47:08.934Z,54.27
2023-05-12T04:48:08.952Z,54.27
2023-05-12T04:49:08.994Z,54.17
2023-05-12T04:50:08.989Z,54.17
2023-05-12T04:51:08.986Z,54.17
2023-05-12T04:52:09.011Z,54.17
2023-05-12T04:53:11.247Z,54.07
2023-05-12T04:54:09.123Z,54.17
2023-05-12T04:55:09.048Z,54.17
2023-05-12T04:56:09.083Z,54.17
2023-05-12T04:57:09.097Z,54.07
2023-05-12T04:58:09.128Z,54.07
2023-05-12T04:59:09.164Z,54.17
2023-05-12T05:00:09.253Z,54.17
2023-05-12T05:02:35.192Z,54.07
2023-05-12T05:03:35.165Z,54.17
2023-05-12T05:04:35.073Z,54.17
2023-05-12T05:05:35.078Z,54.17
2023-05-12T05:06:35.094Z,54.17
2023-05-12T05:07:35.113Z,54.17
2023-05-12T05:08:35.098Z,54.47
2023-05-12T05:09:36.389Z,54.57
2023-05-12T05:10:35.105Z,54.67
2023-05-12T05:11:35.144Z,54.77
2023-05-12T05:12:35.169Z,54.77
2023-05-12T05:13:35.186Z,55.00
2023-05-12T05:14:35.202Z,55.10
2023-05-12T05:15:35.240Z,55.30
2023-05-12T05:16:35.246Z,55.20
2023-05-12T05:17:35.249Z,55.30
2023-05-12T05:18:35.244Z,55.40
2023-05-12T05:19:44.745Z,55.50
2023-05-12T05:20:35.293Z,55.40
2023-05-12T05:21:35.353Z,55.80
2023-05-12T05:22:35.285Z,55.90
2023-05-12T05:23:35.298Z,55.90
2023-05-12T05:24:35.318Z,55.93
2023-05-12T05:25:35.326Z,56.13
2023-05-12T05:26:35.367Z,56.02
2023-05-12T05:27:35.388Z,56.43
2023-05-12T05:28:35.442Z,56.33
2023-05-12T05:29:35.414Z,56.43
2023-05-12T05:30:35.438Z,56.43
2023-05-12T05:31:35.467Z,56.52
2023-05-12T05:32:35.521Z,56.33
2023-05-12T05:33:35.484Z,56.52
2023-05-12T05:34:35.580Z,56.63
2023-05-12T05:35:35.496Z,56.73
2023-05-12T05:36:35.468Z,56.63
2023-05-12T05:37:35.572Z,56.63
2023-05-12T05:38:35.557Z,56.83
2023-05-12T05:39:35.520Z,56.83
2023-05-12T05:40:48.899Z,56.83
2023-05-12T05:41:35.524Z,56.93
2023-05-12T05:42:35.558Z,57.03
2023-05-12T05:43:35.569Z,57.23
2023-05-12T05:44:35.647Z,57.13
2023-05-12T05:45:35.586Z,57.13
2023-05-12T05:46:35.667Z,57.23
2023-05-12T05:47:35.653Z,57.33
2023-05-12T05:48:35.619Z,57.33
2023-05-12T05:49:35.661Z,57.43
2023-05-12T05:50:35.628Z,57.43
2023-05-12T05:51:35.693Z,57.13
2023-05-12T05:52:35.649Z,57.23
2023-05-12T05:53:35.775Z,56.93
2023-05-12T05:54:35.688Z,57.53
2023-05-12T05:55:35.737Z,58.13
2023-05-12T05:56:35.697Z,57.93
2023-05-12T05:57:35.712Z,57.63
2023-05-12T05:58:35.710Z,57.73
2023-05-12T05:59:35.752Z,58.00
2023-05-12T06:00:35.791Z,57.90
2023-05-12T06:01:35.885Z,57.80
2023-05-12T06:02:35.980Z,57.60
2023-05-12T06:03:35.876Z,57.70
2023-05-12T06:04:35.815Z,57.63
2023-05-12T06:05:35.846Z,57.73
2023-05-12T06:06:35.835Z,57.63
2023-05-12T06:07:35.860Z,57.83
2023-05-12T06:08:35.870Z,57.93
2023-05-12T06:09:35.915Z,58.13
2023-05-12T06:10:35.896Z,58.23
2023-05-12T06:11:35.878Z,58.33
2023-05-12T06:12:35.880Z,58.33
2023-05-12T06:13:35.900Z,58.43
2023-05-12T06:14:35.912Z,58.20
2023-05-12T06:15:35.891Z,58.30
2023-05-12T06:16:35.989Z,58.30
2023-05-12T06:17:35.928Z,58.50
2023-05-12T06:18:35.997Z,58.61
2023-05-12T06:19:35.911Z,58.40
2023-05-12T06:20:35.951Z,58.40
2023-05-12T06:21:35.960Z,58.30
2023-05-12T06:22:35.995Z,58.33
2023-05-12T06:23:35.982Z,58.50
2023-05-12T06:24:35.988Z,58.61
2023-05-12T06:25:36.050Z,58.91
2023-05-12T06:26:36.008Z,58.81
2023-05-12T06:27:36.041Z,58.70
2023-05-12T06:28:36.067Z,58.48
2023-05-12T06:29:36.082Z,58.48
2023-05-12T06:30:36.087Z,58.48
2023-05-12T06:31:36.207Z,58.18
2023-05-12T06:32:36.186Z,58.05
2023-05-12T06:33:36.163Z,57.85
2023-05-12T06:34:36.167Z,57.85
2023-05-12T06:35:36.175Z,57.75
2023-05-12T06:36:36.201Z,57.75
2023-05-12T06:37:36.233Z,57.72
2023-05-12T06:38:36.214Z,57.72
2023-05-12T06:39:36.236Z,57.62
2023-05-12T06:40:36.246Z,57.42
2023-05-12T06:41:36.286Z,57.22
2023-05-12T06:42:36.253Z,57.32
2023-05-12T06:43:36.257Z,57.32
2023-05-12T06:44:36.294Z,57.19
2023-05-12T06:45:36.258Z,57.09
2023-05-12T06:46:36.354Z,57.19
2023-05-12T06:47:36.355Z,57.19
2023-05-12T06:48:36.354Z,57.19
2023-05-12T06:49:36.371Z,57.09
2023-05-12T06:50:36.353Z,57.29
2023-05-12T06:51:36.365Z,57.29
2023-05-12T06:52:36.364Z,57.39
2023-05-12T06:53:36.391Z,57.39
2023-05-12T06:54:36.417Z,57.39
2023-05-12T06:55:36.429Z,57.50
2023-05-12T06:56:36.456Z,57.39
2023-05-12T06:57:36.494Z,57.59
2023-05-12T06:58:36.501Z,57.59
2023-05-12T06:59:36.549Z,57.59
2023-05-12T07:00:36.550Z,57.50
2023-05-12T07:01:36.592Z,57.50
2023-05-12T07:02:36.615Z,57.39
2023-05-12T07:03:36.623Z,57.37
2023-05-12T07:04:36.625Z,57.26
2023-05-12T07:05:36.666Z,57.37
2023-05-12T07:06:36.645Z,57.37
2023-05-12T07:07:36.670Z,57.50
2023-05-12T07:08:36.640Z,57.59
2023-05-12T07:09:36.672Z,57.59
2023-05-12T07:10:36.696Z,57.79
2023-05-12T07:11:36.715Z,57.69
2023-05-12T07:12:36.748Z,57.69
2023-05-12T07:13:36.789Z,57.67
2023-05-12T07:14:36.821Z,57.46
2023-05-12T07:15:36.779Z,57.37
2023-05-12T07:16:36.842Z,57.46
2023-05-12T07:17:36.915Z,57.46
2023-05-12T07:18:36.887Z,57.57
2023-05-12T07:19:36.828Z,57.57
2023-05-12T07:20:36.836Z,57.46
2023-05-12T07:21:36.858Z,57.46
2023-05-12T07:22:38.848Z,57.24
2023-05-12T07:23:36.866Z,57.14
2023-05-12T07:24:36.894Z,56.94
2023-05-12T07:25:36.950Z,56.71
2023-05-12T07:26:36.941Z,56.61
2023-05-12T07:27:36.914Z,56.51
2023-05-12T07:28:36.944Z,56.41
2023-05-12T07:29:37.019Z,56.31
2023-05-12T07:30:36.970Z,56.31
2023-05-12T07:31:37.053Z,56.18
2023-05-12T07:32:37.036Z,56.09
2023-05-12T07:33:37.018Z,55.99
2023-05-12T07:34:37.082Z,55.88
2023-05-12T07:35:37.046Z,55.79
2023-05-12T07:36:37.050Z,55.58
2023-05-12T07:37:37.085Z,55.36
2023-05-12T07:38:37.112Z,55.16
2023-05-12T07:39:37.100Z,54.96
2023-05-12T07:40:37.115Z,54.86
2023-05-12T07:41:37.141Z,54.66
2023-05-12T07:42:37.167Z,54.57
2023-05-12T07:43:37.198Z,54.24
2023-05-12T07:44:37.244Z,54.14
2023-05-12T07:45:37.241Z,54.04
2023-05-12T07:46:37.333Z,53.94
2023-05-12T07:47:37.292Z,53.84
2023-05-12T07:48:37.266Z,53.84
2023-05-12T07:49:37.305Z,53.84
2023-05-12T07:50:37.322Z,53.74
2023-05-12T07:51:37.332Z,53.74
2023-05-12T07:52:37.351Z,53.74
2023-05-12T07:53:37.363Z,53.74
2023-05-12T07:54:37.398Z,53.54
2023-05-12T07:55:37.409Z,53.54
2023-05-12T07:56:37.435Z,53.54
2023-05-12T07:57:37.439Z,53.64
2023-05-12T07:58:37.467Z,53.64
2023-05-12T07:59:37.495Z,53.44
2023-05-12T08:00:37.502Z,53.44
2023-05-12T08:01:37.563Z,53.34
2023-05-12T08:02:37.778Z,53.22
2023-05-12T08:03:37.577Z,53.11
2023-05-12T08:04:37.558Z,53.02
2023-05-12T08:05:37.537Z,53.02
2023-05-12T08:06:37.577Z,53.02
2023-05-12T08:07:37.597Z,52.81
2023-05-12T08:08:37.589Z,52.81
2023-05-12T08:09:37.605Z,52.81
2023-05-12T08:10:37.643Z,52.62
2023-05-12T08:11:37.665Z,52.49
2023-05-12T08:12:37.681Z,52.49
2023-05-12T08:13:37.691Z,52.39
2023-05-12T08:14:37.711Z,52.29
2023-05-12T08:15:37.739Z,52.09
2023-05-12T08:16:37.872Z,52.09
2023-05-12T08:17:37.937Z,52.09
2023-05-12T08:18:37.836Z,52.09
2023-05-12T08:19:37.813Z,51.89
2023-05-12T08:20:37.856Z,51.97
2023-05-12T08:21:37.823Z,51.67
2023-05-12T08:22:37.850Z,51.57
2023-05-12T08:23:37.881Z,51.67
2023-05-12T08:24:37.915Z,51.67
2023-05-12T08:25:37.905Z,51.57
2023-05-12T08:26:38.014Z,51.57
2023-05-12T08:27:37.934Z,51.47
2023-05-12T08:28:37.945Z,51.67
2023-05-12T08:29:37.950Z,51.57
2023-05-12T08:30:37.996Z,51.59
2023-05-12T08:31:38.127Z,51.57
2023-05-12T08:32:38.037Z,51.47
2023-05-12T08:33:38.074Z,51.47
2023-05-12T08:34:38.007Z,51.27
2023-05-12T08:35:38.063Z,51.27
2023-05-12T08:36:38.033Z,51.57
2023-05-12T08:37:38.070Z,51.50
2023-05-12T08:38:38.167Z,51.59
2023-05-12T08:39:38.096Z,51.70
2023-05-12T08:40:38.123Z,51.59
2023-05-12T08:41:38.108Z,51.50
2023-05-12T08:42:38.118Z,51.27
2023-05-12T08:43:38.150Z,51.17
2023-05-12T08:44:38.179Z,51.17
2023-05-12T08:45:38.155Z,51.27
2023-05-12T08:46:38.212Z,51.27
2023-05-12T08:47:38.242Z,51.37
2023-05-12T08:48:38.222Z,51.17
2023-05-12T08:49:38.323Z,51.07
2023-05-12T08:50:38.269Z,51.07
2023-05-12T08:51:38.294Z,51.27
2023-05-12T08:52:38.282Z,51.29
2023-05-12T08:53:38.311Z,51.40
2023-05-12T08:54:48.591Z,51.50
2023-05-12T08:55:38.362Z,51.27
2023-05-12T08:57:39.798Z,51.07
2023-05-12T08:58:41.685Z,50.87
2023-05-12T08:59:38.446Z,50.75
2023-05-12T09:00:38.711Z,50.55
2023-05-12T09:01:38.649Z,50.65
2023-05-12T09:02:52.166Z,50.68
2023-05-12T09:03:39.869Z,50.65
2023-05-12T09:04:38.573Z,50.45
2023-05-12T09:05:38.610Z,50.45
2023-05-12T09:06:38.537Z,50.65
2023-05-12T09:07:38.568Z,50.55
2023-05-12T09:08:38.549Z,50.45
2023-05-12T09:09:38.566Z,50.35
2023-05-12T09:10:38.595Z,50.15
2023-05-12T09:11:38.586Z,50.15
2023-05-12T09:12:38.624Z,50.35
2023-05-12T09:13:38.639Z,50.45
2023-05-12T09:14:38.656Z,50.45
2023-05-12T09:15:38.673Z,50.25
2023-05-12T09:16:38.674Z,50.03
2023-05-12T09:17:38.747Z,49.93
2023-05-12T09:18:38.722Z,49.73
2023-05-12T09:19:38.708Z,49.51
2023-05-12T09:20:38.734Z,49.51
2023-05-12T09:21:38.968Z,49.31
2023-05-12T09:22:38.749Z,49.11
2023-05-12T09:23:38.798Z,49.11
2023-05-12T09:24:38.825Z,49.11
2023-05-12T09:25:38.848Z,48.99
2023-05-12T09:26:38.866Z,48.89
2023-05-12T09:27:38.886Z,48.99
2023-05-12T09:28:38.867Z,49.19
2023-05-12T09:29:45.382Z,49.38
2023-05-12T09:30:38.907Z,49.29
2023-05-12T09:31:38.977Z,49.38
2023-05-12T09:32:39.022Z,48.99
2023-05-12T09:33:38.966Z,48.99
2023-05-12T09:34:38.982Z,48.79
2023-05-12T09:35:39.005Z,48.69
2023-05-12T09:36:39.030Z,48.69
2023-05-12T09:37:39.100Z,48.79
2023-05-12T09:38:39.066Z,48.66
2023-05-12T09:39:39.101Z,48.57
2023-05-12T09:40:39.111Z,48.27
2023-05-12T09:41:39.216Z,48.27
2023-05-12T09:42:39.152Z,48.27
2023-05-12T09:43:39.169Z,48.27
2023-05-12T09:44:39.201Z,48.47
2023-05-12T09:45:39.328Z,48.47
2023-05-12T09:46:39.219Z,48.57
2023-05-12T09:47:39.313Z,48.57
2023-05-12T09:48:39.261Z,48.77
2023-05-12T09:49:39.274Z,48.86
2023-05-12T09:50:47.365Z,48.74
2023-05-12T09:51:39.320Z,48.74
2023-05-12T09:52:39.373Z,48.74
2023-05-12T09:53:41.801Z,48.74
2023-05-12T09:54:39.362Z,48.74
2023-05-12T09:55:39.378Z,48.74
2023-05-12T09:56:39.398Z,48.74
2023-05-12T09:57:39.427Z,48.84
2023-05-12T09:58:39.461Z,48.84
2023-05-12T09:59:41.653Z,48.84
2023-05-12T10:00:58.540Z,48.84
2023-05-12T10:01:39.484Z,48.84
2023-05-12T10:02:39.457Z,48.94
2023-05-12T10:03:39.463Z,48.94
2023-05-12T10:04:39.576Z,48.94
2023-05-12T10:05:39.483Z,49.04
2023-05-12T10:06:39.521Z,49.24
2023-05-12T10:07:39.506Z,49.14
2023-05-12T10:08:39.518Z,49.04
2023-05-12T10:09:39.591Z,49.04
2023-05-12T10:10:39.566Z,48.92
2023-05-12T10:11:39.601Z,48.82
2023-05-12T10:12:39.586Z,48.92
2023-05-12T10:13:39.593Z,49.14
2023-05-12T10:14:39.576Z,49.02
2023-05-12T10:15:39.578Z,49.02
2023-05-12T10:16:39.618Z,48.82
2023-05-12T10:17:39.665Z,48.82
2023-05-12T10:18:39.651Z,48.92
2023-05-12T10:19:39.623Z,49.14
2023-05-12T10:20:39.612Z,49.24
2023-05-12T10:21:39.657Z,48.92
2023-05-12T10:22:39.632Z,48.72
2023-05-12T10:23:39.667Z,49.14
2023-05-12T10:24:39.687Z,49.34
2023-05-12T10:25:39.740Z,49.63
2023-05-12T10:26:39.726Z,49.96
2023-05-12T10:27:39.786Z,49.96
2023-05-12T10:28:39.713Z,50.05
2023-05-12T10:29:39.744Z,49.76
2023-05-12T10:30:39.766Z,49.76
2023-05-12T10:31:39.901Z,49.56
2023-05-12T10:32:39.774Z,49.44
2023-05-12T10:33:39.761Z,49.04
2023-05-12T10:34:39.786Z,48.52
2023-05-12T10:35:39.817Z,48.42
2023-05-12T10:36:39.799Z,48.30
2023-05-12T10:37:39.788Z,48.00
2023-05-12T10:38:39.811Z,47.80
2023-05-12T10:39:39.840Z,47.58
2023-05-12T10:40:39.862Z,47.49
2023-05-12T10:41:40.006Z,47.49
2023-05-12T10:42:39.890Z,47.61
2023-05-12T10:43:39.915Z,48.10
2023-05-12T10:44:39.993Z,48.10
2023-05-12T10:45:39.962Z,48.10
2023-05-12T10:46:40.052Z,48.10
2023-05-12T10:47:40.002Z,47.90
2023-05-12T10:48:39.997Z,47.78
2023-05-12T10:49:40.036Z,47.68
2023-05-12T10:50:40.019Z,47.49
2023-05-12T10:51:40.012Z,47.28
2023-05-12T10:52:40.031Z,47.19
2023-05-12T10:53:49.078Z,47.28
2023-05-12T10:54:40.063Z,47.19
2023-05-12T10:55:40.291Z,47.28
2023-05-12T10:56:40.574Z,47.16
2023-05-12T10:57:40.480Z,47.06
2023-05-12T10:58:40.492Z,47.06
2023-05-12T10:59:40.377Z,46.97
2023-05-12T11:00:40.461Z,46.77
2023-05-12T11:01:41.032Z,46.86
2023-05-12T11:02:40.689Z,46.77
2023-05-12T11:03:41.211Z,46.77
2023-05-12T11:04:40.297Z,46.77
2023-05-12T11:05:40.468Z,46.67
2023-05-12T11:06:41.017Z,46.55
2023-05-12T11:07:40.336Z,46.55
2023-05-12T11:08:40.411Z,46.55
2023-05-12T11:09:48.030Z,46.45
2023-05-12T11:10:40.288Z,46.45
2023-05-12T11:11:40.555Z,46.45
2023-05-12T11:12:40.238Z,46.35
2023-05-12T11:13:40.340Z,46.35
2023-05-12T11:14:40.270Z,46.35
2023-05-12T11:15:40.244Z,46.25
2023-05-12T11:16:40.349Z,46.35
2023-05-12T11:17:40.417Z,46.25
2023-05-12T11:18:40.470Z,46.25
2023-05-12T11:19:40.326Z,46.15
2023-05-12T11:20:40.337Z,46.05
2023-05-12T11:21:40.356Z,46.05
2023-05-12T11:22:40.382Z,45.95
2023-05-12T11:23:40.417Z,45.95
2023-05-12T11:24:40.435Z,45.83
2023-05-12T11:25:42.740Z,45.83
2023-05-12T11:26:40.492Z,45.73
2023-05-12T11:27:40.522Z,45.63
2023-05-12T11:28:40.503Z,45.53
2023-05-12T11:29:40.618Z,45.53
2023-05-12T11:30:40.542Z,46.59
2023-05-12T11:31:40.589Z,47.31
2023-05-12T11:32:40.644Z,47.83
2023-05-12T11:33:40.596Z,48.22
2023-05-12T11:34:40.601Z,48.44
2023-05-12T11:35:40.624Z,48.65
2023-05-12T11:36:40.620Z,48.86
2023-05-12T11:37:40.640Z,49.07
2023-05-12T11:38:40.758Z,49.16
2023-05-12T11:39:40.633Z,49.38
2023-05-12T11:40:40.643Z,49.49
2023-05-12T11:41:40.671Z,49.68
2023-05-12T11:42:40.705Z,49.58
2023-05-12T11:43:40.723Z,49.68
2023-05-12T11:44:40.752Z,49.88
2023-05-12T11:45:40.836Z,50.01
2023-05-12T11:46:40.782Z,50.01
2023-05-12T11:47:40.793Z,50.01
2023-05-12T11:48:40.797Z,50.20
2023-05-12T11:49:40.780Z,50.10
2023-05-12T11:50:40.798Z,50.31
2023-05-12T11:51:40.810Z,50.31
2023-05-12T11:52:40.821Z,50.33
2023-05-12T11:53:40.846Z,50.43
2023-05-12T11:54:40.832Z,50.52
2023-05-12T11:55:40.839Z,50.43
2023-05-12T11:56:40.859Z,50.52
2023-05-12T11:57:40.887Z,50.52
2023-05-12T11:58:40.940Z,50.63
2023-05-12T11:59:40.911Z,50.52
2023-05-12T12:00:40.938Z,50.63
2023-05-12T12:01:41.013Z,50.52
2023-05-12T12:02:41.044Z,50.82
2023-05-12T12:03:41.128Z,50.85
2023-05-12T12:04:41.122Z,50.82
2023-05-12T12:05:41.033Z,50.75
2023-05-12T12:06:41.050Z,50.73
2023-05-12T12:07:41.080Z,50.65
2023-05-12T12:08:41.113Z,50.65
2023-05-12T12:09:41.130Z,50.65
2023-05-12T12:10:41.158Z,50.75
2023-05-12T12:11:41.182Z,50.75
2023-05-12T12:12:41.204Z,50.65
2023-05-12T12:13:41.185Z,50.75
2023-05-12T12:14:41.229Z,50.75
2023-05-12T12:15:41.247Z,50.75
2023-05-12T12:16:41.286Z,50.75
2023-05-12T12:17:41.414Z,50.75
2023-05-12T12:18:41.306Z,50.95
2023-05-12T12:19:41.279Z,50.85
2023-05-12T12:20:41.291Z,50.85
2023-05-12T12:21:41.309Z,50.55
2023-05-12T12:22:41.333Z,50.55
2023-05-12T12:23:50.797Z,50.45
2023-05-12T12:24:41.388Z,50.65
2023-05-12T12:25:41.376Z,50.75
2023-05-12T12:26:41.388Z,50.75
2023-05-12T12:27:41.412Z,50.75
2023-05-12T12:28:41.395Z,50.75
2023-05-12T12:29:41.404Z,50.78
2023-05-12T12:30:41.410Z,50.78
2023-05-12T12:31:41.452Z,50.78
2023-05-12T12:32:41.506Z,50.78
2023-05-12T12:33:41.491Z,50.78
2023-05-12T12:34:41.502Z,50.78
2023-05-12T12:35:41.495Z,50.78
2023-05-12T12:36:41.498Z,50.78
2023-05-12T12:37:41.523Z,50.78
2023-05-12T12:38:41.501Z,50.78
2023-05-12T12:39:41.536Z,50.78
2023-05-12T12:40:41.567Z,50.78
2023-05-12T12:41:41.581Z,50.78
2023-05-12T12:42:41.618Z,50.78
2023-05-12T12:43:41.612Z,50.78
2023-05-12T12:44:41.638Z,50.78
2023-05-12T12:45:41.652Z,50.78
2023-05-12T12:46:41.703Z,50.78
2023-05-12T12:47:41.699Z,50.78
2023-05-12T12:48:41.693Z,50.78
2023-05-12T12:49:41.713Z,50.68
2023-05-12T12:50:41.669Z,50.68
2023-05-12T12:51:46.073Z,50.68
2023-05-12T12:52:41.713Z,50.68
2023-05-12T12:53:41.793Z,50.78
2023-05-12T12:54:41.771Z,50.78
2023-05-12T12:55:41.835Z,50.78
2023-05-12T12:56:41.796Z,50.78
2023-05-12T12:57:41.826Z,50.78